Time;durP1;ratioP1;P1;durP2;ratioP2;P2;SDS_P1;SDS_P2;PMS_P1;PMS_P2;Temp;Humidity;BMP_temperature;BMP_pressure;BME280_temperature;BME280_humidity;BME280_pressure;Samples;Min_cycle;Max_cycle;Signal;HPM_P1;HPM_P2
2022/02/25 00:01:27;;;;;;;16.02;6.25;;;7.20;99.90;;;7.35;64.31;101439.16;5093470;28;20044;-63
2022/02/25 00:03:55;;;;;;;12.98;5.78;;;7.20;99.90;;;7.34;64.50;101437.41;5093681;28;20052;-63
2022/02/25 00:06:24;;;;;;;19.75;6.72;;;7.20;99.90;;;7.31;64.95;101448.75;5093587;28;20047;-63
2022/02/25 00:08:52;;;;;;;22.83;5.95;;;7.20;99.90;;;7.31;64.92;101443.47;5093710;28;20044;-63
2022/02/25 00:11:22;;;;;;;20.90;6.70;;;7.20;99.90;;;7.32;65.03;101442.59;5093687;28;20138;-63
2022/02/25 00:13:50;;;;;;;20.17;5.30;;;7.20;99.90;;;7.35;64.63;101445.31;5093925;28;20097;-67
2022/02/25 00:16:19;;;;;;;20.35;5.70;;;7.20;99.90;;;7.34;65.49;101443.53;5093601;28;20290;-63
2022/02/25 00:18:47;;;;;;;20.23;6.25;;;7.20;99.90;;;7.35;65.54;101455.84;5093577;28;20127;-66
2022/02/25 00:21:16;;;;;;;15.93;6.43;;;7.30;99.90;;;7.39;65.60;101452.41;5074496;28;20555;-68
2022/02/25 00:23:46;;;;;;;19.95;6.00;;;7.20;99.90;;;7.34;66.12;101446.16;5093495;28;20539;-63
2022/02/25 00:26:15;;;;;;;20.77;5.78;;;7.20;99.90;;;7.33;65.83;101447.03;5093124;28;20044;-63
2022/02/25 00:28:44;;;;;;;16.90;5.15;;;7.30;99.90;;;7.43;65.68;101459.50;5093694;28;20074;-63
2022/02/25 00:31:13;;;;;;;19.33;6.17;;;7.30;99.90;;;7.41;65.79;101461.22;5093453;28;20044;-63
2022/02/25 00:33:41;;;;;;;19.75;5.80;;;7.30;99.90;;;6.79;65.51;101335.56;5093392;28;20044;-63
2022/02/25 00:36:10;;;;;;;20.85;6.68;;;7.30;99.90;;;6.73;65.70;101315.31;5093109;28;20562;-63
2022/02/25 00:38:38;;;;;;;15.15;5.45;;;7.40;99.90;;;7.60;65.49;101458.03;5093114;28;20071;-63
2022/02/25 00:41:07;;;;;;;17.08;5.97;;;7.40;99.90;;;7.51;65.19;101460.50;5093080;28;20558;-63
2022/02/25 00:43:35;;;;;;;26.00;6.43;;;7.40;99.90;;;7.55;65.02;101466.72;5093079;28;20161;-63
2022/02/25 00:46:05;;;;;;;18.85;5.82;;;7.40;99.90;;;7.34;64.92;101447.94;5092923;28;20036;-63
2022/02/25 00:48:33;;;;;;;20.27;6.57;;;7.30;99.90;;;7.41;64.70;101458.59;5093045;28;20405;-63
2022/02/25 00:51:02;;;;;;;17.85;6.35;;;7.30;99.90;;;7.30;64.48;101436.44;5093307;28;20093;-63
2022/02/25 00:53:30;;;;;;;21.13;6.03;;;7.30;99.90;;;7.59;65.12;101461.50;5093092;28;20079;-63
2022/02/25 00:55:58;;;;;;;24.58;6.10;;;7.40;99.90;;;7.66;64.94;101466.03;5093504;28;20044;-64
2022/02/25 00:58:27;;;;;;;22.42;6.55;;;7.50;99.90;;;7.65;65.18;101471.25;5093207;28;20039;-63
2022/02/25 01:00:56;;;;;;;21.23;6.88;;;7.50;99.90;;;7.49;65.01;101458.72;5093162;28;20458;-63
2022/02/25 01:03:26;;;;;;;24.33;5.78;;;7.50;99.90;;;7.60;64.89;101463.31;5093176;28;20113;-63
2022/02/25 01:05:57;;;;;;;20.77;6.38;;;7.50;99.90;;;7.51;65.42;101447.34;5093120;28;20048;-63
2022/02/25 01:08:26;;;;;;;20.75;6.07;;;7.40;99.90;;;7.51;65.47;101460.50;5093067;28;20464;-63
2022/02/25 01:10:54;;;;;;;25.85;6.55;;;7.40;99.90;;;7.56;65.33;101461.47;5092796;28;20075;-64
2022/02/25 01:13:23;;;;;;;24.42;6.40;;;7.40;99.90;;;7.56;65.23;101469.38;5092805;28;20093;-63
2022/02/25 01:15:51;;;;;;;21.63;5.90;;;7.40;99.90;;;7.42;65.46;101464.72;5092878;28;20449;-63
2022/02/25 01:18:24;;;;;;;16.38;6.30;;;7.30;99.90;;;7.54;65.43;101467.56;5092802;28;20040;-63
2022/02/25 01:20:53;;;;;;;20.35;6.22;;;7.40;99.90;;;7.53;64.77;101456.13;5092913;28;20060;-63
2022/02/25 01:23:22;;;;;;;25.70;6.40;;;7.40;99.90;;;7.51;64.76;101465.75;5093001;28;20040;-63
2022/02/25 01:25:50;;;;;;;20.60;6.18;;;7.40;99.90;;;7.41;64.48;101455.06;5092589;28;20548;-63
2022/02/25 01:28:19;;;;;;;23.60;6.32;;;7.40;99.90;;;7.48;64.96;101470.09;5092634;28;20408;-64
2022/02/25 01:30:47;;;;;;;18.70;6.20;;;7.30;99.90;;;7.45;65.56;101473.56;5092867;28;20048;-63
2022/02/25 01:33:16;;;;;;;15.15;6.43;;;7.30;99.90;;;7.56;65.61;101472.00;5094171;28;20079;-63
2022/02/25 01:35:44;;;;;;;21.27;7.00;;;7.40;99.90;;;7.55;65.97;101464.09;5096638;28;20417;-65
2022/02/25 01:38:14;;;;;;;23.33;6.57;;;7.40;99.90;;;7.56;66.25;101466.75;5096823;28;20075;-63
2022/02/25 01:40:43;;;;;;;;;;;7.40;99.90;;;7.42;66.26;101441.91;5096709;28;20401;-63
2022/02/25 01:43:11;;;;;;;24.65;6.85;;;7.40;99.90;;;7.58;66.54;101465.03;5096429;28;19920;-63
2022/02/25 01:45:40;;;;;;;18.40;7.15;;;7.40;99.90;;;7.57;66.39;101473.75;5096373;28;20048;-64
2022/02/25 01:48:08;;;;;;;23.85;6.93;;;7.40;99.90;;;7.61;66.61;101485.22;5095971;28;20123;-63
2022/02/25 01:50:38;;;;;;;20.73;6.97;;;7.40;99.90;;;7.55;65.97;101470.22;5096303;28;20055;-64
2022/02/25 01:53:09;;;;;;;22.48;6.43;;;7.40;99.90;;;7.55;66.29;101475.47;5095965;28;20082;-66
2022/02/25 01:55:42;;;;;;;21.00;5.80;;;7.40;99.90;;;7.62;66.60;101464.22;5095934;28;20071;-63
2022/02/25 01:58:11;;;;;;;26.75;7.35;;;7.40;99.90;;;7.58;66.26;101472.91;5078055;28;20105;-63
2022/02/25 02:00:39;;;;;;;25.73;7.28;;;7.40;99.90;;;7.57;66.50;101460.59;5095794;28;20036;-63
2022/02/25 02:03:08;;;;;;;23.02;6.72;;;7.40;99.90;;;7.51;66.17;101462.25;5095764;28;20044;-64
2022/02/25 02:05:39;;;;;;;19.50;6.00;;;7.40;99.90;;;7.55;66.38;101470.22;5096068;28;20109;-63
2022/02/25 02:08:07;;;;;;;25.42;6.93;;;7.40;99.90;;;7.37;67.12;101464.66;5095543;28;20497;-66
2022/02/25 02:10:35;;;;;;;22.30;6.28;;;7.30;99.90;;;7.31;66.76;101469.78;5095599;28;20063;-63
2022/02/25 02:13:05;;;;;;;27.10;6.43;;;7.20;99.90;;;7.38;66.98;101466.41;5095547;28;20048;-63
2022/02/25 02:15:34;;;;;;;24.07;6.57;;;7.20;99.90;;;7.42;66.99;101459.44;5095608;28;20076;-63
2022/02/25 02:18:03;;;;;;;25.92;6.55;;;7.20;99.90;;;7.36;67.07;101462.84;5077701;28;20301;-67
2022/02/25 02:20:31;;;;;;;29.70;7.28;;;7.20;99.90;;;7.42;67.56;101465.59;5095689;28;20456;-63
2022/02/25 02:23:01;;;;;;;22.10;7.15;;;7.20;99.90;;;7.47;67.60;101455.16;5095391;28;20490;-63
2022/02/25 02:25:30;;;;;;;22.50;6.57;;;7.20;99.90;;;7.43;68.13;101462.13;5095399;28;20134;-63
2022/02/25 02:30:44;;;;;;;34.35;7.38;;;7.30;99.90;;;7.42;68.55;101459.44;5095328;28;20543;-65
2022/02/25 02:33:13;;;;;;;25.17;6.70;;;7.30;99.90;;;7.47;68.78;101461.28;5095811;28;20389;-63
2022/02/25 02:35:41;;;;;;;19.67;6.28;;;7.30;99.90;;;7.55;68.64;101472.00;5095371;28;20048;-63
2022/02/25 02:38:12;;;;;;;29.17;7.20;;;7.30;99.90;;;7.52;68.23;101441.22;5095437;28;20077;-64
2022/02/25 02:40:40;;;;;;;20.30;7.15;;;7.40;99.90;;;7.69;67.83;101455.53;5095687;28;20094;-64
2022/02/25 02:43:10;;;;;;;30.77;6.55;;;7.50;99.90;;;7.72;67.72;101458.25;5095273;28;20055;-63
2022/02/25 02:45:38;;;;;;;21.58;6.85;;;7.50;99.90;;;7.72;67.85;101453.00;5094117;28;20485;-63
2022/02/25 02:48:07;;;;;;;33.47;7.85;;;7.50;99.90;;;7.70;67.86;101445.91;5094831;28;20443;-63
2022/02/25 02:50:36;;;;;;;24.88;7.20;;;7.50;99.90;;;7.56;67.88;101432.53;5095134;28;20169;-64
2022/02/25 02:53:05;;;;;;;26.80;7.65;;;7.50;99.90;;;7.55;68.76;101443.03;5094794;28;20097;-63
2022/02/25 02:55:35;;;;;;;26.88;7.13;;;7.40;99.90;;;7.44;68.59;101423.53;5095090;28;20044;-63
2022/02/25 02:58:06;;;;;;;25.00;7.28;;;7.40;99.90;;;7.40;68.74;101426.94;5095083;28;20127;-63
2022/02/25 03:00:35;;;;;;;31.67;7.57;;;7.30;99.90;;;7.19;69.32;101394.16;5094917;28;20056;-63
2022/02/25 03:03:04;;;;;;;29.95;7.68;;;7.20;99.90;;;7.42;69.54;101419.97;5094856;28;20138;-63
2022/02/25 03:05:33;;;;;;;31.35;7.57;;;7.20;99.90;;;7.13;69.12;101401.06;5095184;28;20111;-63
2022/02/25 03:08:01;;;;;;;25.13;6.80;;;7.10;99.90;;;7.36;68.99;101433.03;5094417;28;20504;-63
2022/02/25 03:10:30;;;;;;;26.92;7.95;;;7.10;99.90;;;7.35;68.82;101431.25;5095039;28;20065;-63
2022/02/25 03:13:00;;;;;;;32.47;7.30;;;7.10;99.90;;;7.30;68.91;101433.81;5094661;28;20040;-64
2022/02/25 03:15:29;;;;;;;29.83;7.53;;;7.10;99.90;;;7.32;69.70;101429.47;5076558;28;20052;-63
2022/02/25 03:17:57;;;;;;;27.08;8.13;;;7.10;99.90;;;7.40;70.53;101429.59;5094513;28;20087;-63
2022/02/25 03:20:26;;;;;;;25.55;6.95;;;7.20;99.90;;;7.39;71.23;101425.19;5094324;28;20090;-63
2022/02/25 03:22:56;;;;;;;28.10;7.65;;;7.20;99.90;;;7.29;71.42;101432.03;5094276;28;20455;-63
2022/02/25 03:25:26;;;;;;;34.33;7.68;;;7.10;99.90;;;7.28;72.04;101443.41;5094225;28;20420;-64
2022/02/25 03:27:54;;;;;;;29.48;7.80;;;7.10;99.90;;;7.21;72.07;101442.44;5094397;28;20036;-64
2022/02/25 03:30:24;;;;;;;27.88;8.05;;;7.00;99.90;;;7.19;72.18;101448.50;5094362;28;20444;-63
2022/02/25 03:32:52;;;;;;;27.60;7.15;;;7.00;99.90;;;7.17;72.53;101448.50;5094375;28;20042;-63
2022/02/25 03:35:21;;;;;;;28.67;7.20;;;7.00;99.90;;;7.21;72.32;101452.06;5094223;28;20063;-63
2022/02/25 03:37:50;;;;;;;26.40;7.28;;;7.00;99.90;;;7.22;72.79;101443.28;5093985;28;20426;-64
2022/02/25 03:40:19;;;;;;;31.65;7.35;;;7.00;99.90;;;7.21;72.89;101445.06;5093899;28;20039;-63
2022/02/25 03:42:48;;;;;;;28.48;7.40;;;7.00;99.90;;;7.18;73.08;101438.88;5094183;28;20055;-63
2022/02/25 03:45:16;;;;;;;32.60;7.88;;;7.00;99.90;;;7.23;73.09;101445.09;5093863;28;20494;-64
2022/02/25 03:47:46;;;;;;;30.08;7.13;;;7.00;99.90;;;7.18;73.35;101447.63;5094027;28;20040;-63
2022/02/25 03:50:14;;;;;;;30.70;7.00;;;7.00;99.90;;;7.23;73.61;101451.25;5093762;28;20044;-63
2022/02/25 03:52:43;;;;;;;26.88;8.15;;;7.00;99.90;;;7.27;74.07;101446.91;5093875;28;20534;-63
2022/02/25 03:55:11;;;;;;;26.42;7.20;;;7.10;99.90;;;7.10;74.28;101416.78;5093864;28;20408;-64
2022/02/25 03:57:40;;;;;;;29.38;7.53;;;7.10;99.90;;;7.14;74.56;101421.25;5093628;28;20075;-63
2022/02/25 04:00:12;;;;;;;38.08;8.13;;;7.10;99.90;;;7.32;74.80;101449.66;5093791;28;20048;-63
2022/02/25 04:02:40;;;;;;;28.58;7.70;;;7.10;99.90;;;7.24;74.25;101423.16;5093881;28;20048;-63
2022/02/25 04:05:11;;;;;;;35.17;7.63;;;7.20;99.90;;;7.37;74.35;101447.97;5094070;28;20051;-64
2022/02/25 04:07:42;;;;;;;34.63;7.32;;;7.20;99.90;;;7.41;74.18;101441.91;5093937;28;20085;-64
2022/02/25 04:10:12;;;;;;;25.60;8.07;;;7.20;99.90;;;7.45;74.32;101455.16;5093784;28;20055;-63
2022/02/25 04:12:41;;;;;;;28.75;8.23;;;7.30;99.90;;;7.33;74.49;101454.94;5093396;28;20560;-63
2022/02/25 04:15:10;;;;;;;29.80;7.47;;;7.30;99.90;;;7.35;73.42;101433.91;5093575;28;20105;-64
2022/02/25 04:17:39;;;;;;;29.17;8.23;;;7.30;99.90;;;7.44;72.70;101439.31;5093409;28;20511;-64
2022/02/25 04:20:11;;;;;;;32.40;7.70;;;7.30;99.90;;;7.59;72.27;101458.88;5093567;28;20055;-67
2022/02/25 04:22:39;;;;;;;33.15;7.68;;;7.40;99.90;;;7.60;72.16;101430.81;5093374;28;20060;-64
2022/02/25 04:25:09;;;;;;;22.55;6.90;;;7.50;99.90;;;7.63;72.17;101450.19;5093527;28;20557;-63
2022/02/25 04:27:39;;;;;;;28.70;6.82;;;7.50;99.90;;;7.73;71.86;101449.47;5093472;28;20052;-63
2022/02/25 04:30:08;;;;;;;28.10;8.45;;;7.50;99.90;;;7.58;72.12;101448.34;5075193;28;20551;-63
2022/02/25 04:32:37;;;;;;;29.00;7.55;;;7.40;99.90;;;7.65;72.15;101443.19;5093484;28;20455;-63
2022/02/25 04:35:06;;;;;;;28.27;7.60;;;7.50;99.90;;;7.71;72.82;101450.31;5093379;28;20125;-63
2022/02/25 04:37:36;;;;;;;21.42;6.80;;;7.50;99.90;;;7.76;72.84;101438.97;5093096;28;20047;-63
2022/02/25 04:40:06;;;;;;;37.87;8.10;;;7.60;99.90;;;7.67;73.96;101428.31;5093666;28;20555;-65
2022/02/25 04:42:36;;;;;;;31.42;7.57;;;7.50;99.90;;;7.41;74.73;101402.44;5093415;28;20278;-66
2022/02/25 04:45:06;;;;;;;28.45;7.90;;;7.40;99.90;;;7.40;75.50;101441.00;5093248;28;20058;-65
2022/02/25 04:47:39;;;;;;;28.05;6.82;;;7.30;99.90;;;7.39;75.97;101441.00;5093039;28;20048;-63
2022/02/25 04:50:09;;;;;;;26.83;7.40;;;7.20;99.90;;;7.40;76.31;101448.91;5093302;28;20113;-63
2022/02/25 04:52:41;;;;;;;41.58;9.63;;;7.20;99.90;;;7.24;78.63;101446.84;5093049;28;20052;-63
2022/02/25 04:55:10;;;;;;;35.08;8.63;;;7.10;99.90;;;7.27;79.54;101449.56;5093335;28;20060;-64
2022/02/25 04:57:42;;;;;;;29.55;7.43;;;7.10;99.90;;;7.33;79.95;101436.50;5093211;28;20056;-65
2022/02/25 05:00:13;;;;;;;31.33;8.25;;;7.10;99.90;;;7.32;79.77;101447.00;5093124;28;20097;-63
2022/02/25 05:02:42;;;;;;;32.88;8.77;;;7.10;99.90;;;7.08;79.82;101429.03;5093478;28;20040;-63
2022/02/25 05:05:11;;;;;;;31.73;8.55;;;7.10;99.90;;;7.11;81.02;101439.59;5093342;28;20374;-63
2022/02/25 05:07:44;;;;;;;28.48;7.40;;;7.00;99.90;;;7.26;80.60;101450.38;5093580;28;20512;-66
2022/02/25 05:10:13;;;;;;;30.23;7.68;;;7.10;99.90;;;7.23;80.44;101460.88;5096902;28;20409;-64
2022/02/25 05:12:44;;;;;;;26.85;9.05;;;7.10;99.90;;;7.25;79.83;101457.41;5096827;28;20139;-65
2022/02/25 05:20:46;;;;;;;30.67;7.80;;;7.10;99.90;;;7.21;77.86;101467.84;5096653;28;20127;-64
2022/02/25 05:23:17;;;;;;;33.42;7.95;;;7.10;99.90;;;7.08;77.54;101476.38;5096829;28;20144;-63
2022/02/25 05:25:47;;;;;;;36.05;9.35;;;7.00;99.90;;;7.28;77.30;101480.25;5096598;28;20040;-63
2022/02/25 05:28:16;;;;;;;31.33;7.88;;;7.10;99.90;;;7.23;77.44;101477.56;5096461;28;20040;-63
2022/02/25 05:30:45;;;;;;;24.50;6.95;;;7.10;99.90;;;7.32;76.63;101491.75;5096395;28;20052;-64
2022/02/25 05:33:13;;;;;;;24.38;7.25;;;7.20;99.90;;;7.27;76.33;101483.75;5096409;28;20473;-66
2022/02/25 05:35:42;;;;;;;32.30;7.43;;;7.20;99.90;;;7.19;76.02;101474.81;5096893;28;20496;-63
2022/02/25 05:38:10;;;;;;;36.10;8.35;;;7.10;99.90;;;7.29;75.73;101497.81;5096221;28;20048;-63
2022/02/25 05:40:40;;;;;;;29.05;7.32;;;7.20;99.90;;;7.26;74.99;101492.47;5096257;28;20101;-63
2022/02/25 05:43:09;;;;;;;28.50;8.20;;;7.10;99.90;;;7.24;74.56;101481.03;5096825;28;20044;-63
2022/02/25 05:45:37;;;;;;;26.50;7.53;;;7.20;99.90;;;7.33;74.95;101504.91;5096434;28;20040;-63
2022/02/25 05:48:06;;;;;;;27.45;8.07;;;7.20;99.90;;;7.24;75.27;101499.47;5096015;28;20101;-63
2022/02/25 05:50:35;;;;;;;30.17;8.02;;;7.10;99.90;;;7.32;75.24;101506.66;5096317;28;20039;-63
2022/02/25 05:53:03;;;;;;;22.48;7.28;;;7.20;99.90;;;7.26;74.80;101510.91;5095878;28;20425;-64
2022/02/25 05:55:32;;;;;;;22.25;6.45;;;7.20;99.90;;;7.30;74.79;101524.16;5074469;28;20079;-63
2022/02/25 05:58:04;;;;;;;23.20;7.47;;;7.20;99.90;;;7.36;74.68;101520.75;5075946;28;20449;-63
2022/02/25 06:00:38;;;;;;;31.58;7.15;;;7.20;99.90;;;7.33;74.21;101523.34;5075703;28;20040;-63
2022/02/25 06:03:06;;;;;;;20.08;6.57;;;7.20;99.90;;;7.32;74.05;101530.34;5075575;28;20032;-64
2022/02/25 06:05:35;;;;;;;28.67;7.93;;;7.20;99.90;;;7.36;75.28;101544.44;5075867;28;20087;-63
2022/02/25 06:08:03;;;;;;;27.85;7.05;;;7.30;99.90;;;7.38;75.33;101552.34;5074484;28;20452;-63
2022/02/25 06:10:32;;;;;;;28.00;7.10;;;7.30;99.90;;;7.39;75.49;101557.66;5075275;28;20096;-64
2022/02/25 06:13:00;;;;;;;28.70;7.80;;;7.30;99.90;;;7.36;75.05;101560.22;5075705;28;20131;-63
2022/02/25 06:15:30;;;;;;;26.98;7.68;;;7.30;99.90;;;7.41;75.25;101571.75;5075386;28;20066;-63
2022/02/25 06:18:01;;;;;;;27.27;7.47;;;7.30;99.90;;;7.25;75.04;101564.41;5074399;28;20070;-63
2022/02/25 06:20:29;;;;;;;27.25;7.13;;;7.30;99.90;;;7.32;74.70;101571.53;5075444;28;20051;-63
2022/02/25 06:22:57;;;;;;;22.58;7.32;;;7.20;99.90;;;7.31;74.92;101585.56;5075453;28;20044;-64
2022/02/25 06:25:26;;;;;;;23.70;7.10;;;7.20;99.90;;;7.34;75.03;101584.75;5075315;28;20044;-63
2022/02/25 06:27:54;;;;;;;24.58;6.93;;;7.20;99.90;;;7.22;75.43;101586.25;5075407;28;20123;-63
2022/02/25 06:30:23;;;;;;;23.58;7.22;;;7.10;99.90;;;7.23;75.86;101589.78;5074963;28;20066;-67
2022/02/25 06:32:53;;;;;;;26.50;7.50;;;7.10;99.90;;;7.27;75.52;101589.88;5074890;28;20135;-63
2022/02/25 06:35:23;;;;;;;26.90;8.30;;;7.10;99.90;;;7.29;75.99;101595.19;5074860;28;20041;-63
2022/02/25 06:37:52;;;;;;;30.15;6.85;;;7.20;99.90;;;7.11;75.62;101561.47;5074725;28;20039;-63
2022/02/25 06:40:20;;;;;;;29.00;8.10;;;7.20;99.90;;;7.32;76.02;101601.38;5075122;28;20123;-63
2022/02/25 06:42:49;;;;;;;28.55;6.82;;;7.20;99.90;;;7.50;75.94;101614.03;5075042;28;20075;-65
2022/02/25 06:45:17;;;;;;;32.22;8.13;;;7.30;99.90;;;7.31;76.22;101596.09;5075127;28;20083;-63
2022/02/25 06:47:46;;;;;;;30.98;7.88;;;7.30;99.90;;;7.39;76.49;101625.19;5074611;28;20117;-63
2022/02/25 06:50:18;;;;;;;30.92;8.32;;;7.30;99.90;;;7.43;76.85;101627.94;5074539;28;20120;-63
2022/02/25 06:52:47;;;;;;;31.40;8.63;;;7.30;99.90;;;7.40;76.31;101622.59;5073310;28;20110;-63
2022/02/25 06:55:18;;;;;;;28.15;8.02;;;7.30;99.90;;;7.47;76.21;101631.50;5089952;28;20048;-63
2022/02/25 06:58:05;;;;;;;29.40;7.90;;;7.30;99.90;;;7.47;76.15;101627.09;5095086;28;20117;-63
2022/02/25 07:00:34;;;;;;;35.95;7.65;;;7.40;99.90;;;7.44;76.00;101624.44;5094995;28;20405;-63
2022/02/25 07:03:04;;;;;;;26.88;7.10;;;7.40;99.90;;;7.62;76.33;101643.22;5095162;28;20486;-63
2022/02/25 07:05:37;;;;;;;32.33;7.15;;;7.40;99.90;;;7.50;76.53;101645.63;5094633;28;20032;-63
2022/02/25 07:08:05;;;;;;;29.42;7.85;;;7.40;99.90;;;6.76;77.10;101517.78;5094557;28;20113;-63
2022/02/25 07:10:35;;;;;;;33.47;7.53;;;7.40;99.90;;;7.51;77.46;101663.16;5094734;28;20123;-63
2022/02/25 07:13:06;;;;;;;27.30;7.70;;;7.40;99.90;;;7.28;77.73;101628.50;5094413;28;20426;-63
2022/02/25 07:15:35;;;;;;;29.48;7.78;;;7.30;99.90;;;7.38;77.53;101661.13;5094702;28;20040;-63
2022/02/25 07:18:04;;;;;;;34.20;7.82;;;7.30;99.90;;;7.44;77.37;101669.16;5094493;28;20401;-63
2022/02/25 07:20:34;;;;;;;27.75;7.70;;;7.30;99.90;;;7.38;77.34;101686.56;5094121;28;20498;-64
2022/02/25 07:23:03;;;;;;;37.35;10.63;;;7.30;99.90;;;7.40;77.76;101684.84;5094244;28;20094;-64
2022/02/25 07:25:32;;;;;;;28.52;7.85;;;7.30;99.90;;;7.49;77.79;101695.59;5094338;28;20393;-63
2022/02/25 07:28:00;;;;;;;39.03;8.75;;;7.30;99.90;;;7.50;77.35;101686.81;5094439;28;20075;-63
2022/02/25 07:30:29;;;;;;;36.00;7.85;;;7.40;99.90;;;7.52;77.82;101704.44;5093840;28;20066;-63
2022/02/25 07:32:57;;;;;;;25.33;8.00;;;7.40;99.90;;;7.56;77.35;101692.22;5076170;28;20078;-63
2022/02/25 07:35:26;;;;;;;24.48;7.85;;;7.40;99.90;;;7.63;77.20;101704.66;5093948;28;20550;-63
2022/02/25 07:37:57;;;;;;;31.83;7.63;;;7.50;99.90;;;7.52;76.37;101707.06;5094513;28;20040;-63
2022/02/25 07:40:26;;;;;;;33.25;7.55;;;7.40;99.90;;;7.53;75.90;101711.47;5093813;28;20519;-63
2022/02/25 07:42:55;;;;;;;21.38;6.63;;;7.40;99.90;;;7.53;75.51;101698.31;5093812;28;20047;-64
2022/02/25 07:45:25;;;;;;;34.65;7.78;;;7.40;99.90;;;7.48;75.45;101715.75;5093778;28;20055;-64
2022/02/25 07:47:54;;;;;;;28.67;6.80;;;7.40;99.90;;;7.55;75.28;101728.19;5093772;28;20504;-64
2022/02/25 07:50:23;;;;;;;23.58;7.53;;;7.40;99.90;;;7.43;75.06;101719.16;5093683;28;20036;-63
2022/02/25 07:52:51;;;;;;;27.52;7.57;;;7.40;99.90;;;7.52;74.91;101712.34;5093927;28;20105;-63
2022/02/25 07:55:21;;;;;;;33.03;7.35;;;7.40;99.90;;;7.57;74.82;101721.22;5093206;28;20563;-66
2022/02/25 07:57:49;;;;;;;25.73;8.27;;;7.50;99.90;;;7.48;74.85;101705.22;5093592;28;20433;-63
2022/02/25 08:00:25;;;;;;;26.10;7.43;;;7.50;99.90;;;7.67;74.01;101735.44;5093642;28;20048;-63
2022/02/25 08:02:55;;;;;;;33.22;8.15;;;7.60;99.90;;;7.69;74.01;101747.81;5093455;28;20072;-65
2022/02/25 08:05:24;;;;;;;29.25;7.35;;;7.60;99.90;;;7.69;74.09;101753.06;5093581;28;20063;-62
2022/02/25 08:07:53;;;;;;;21.50;7.53;;;7.60;99.90;;;7.83;74.30;101763.91;5093501;28;20071;-62
2022/02/25 08:10:23;;;;;;;27.75;6.53;;;7.70;99.90;;;7.75;74.65;101773.38;5093246;28;20048;-63
2022/02/25 08:12:52;;;;;;;22.83;6.40;;;7.60;99.90;;;7.74;75.29;101766.34;5075566;28;20501;-63
2022/02/25 08:15:20;;;;;;;22.60;6.70;;;7.60;99.90;;;7.86;74.54;101783.28;5093553;28;20097;-63
2022/02/25 08:17:49;;;;;;;25.63;7.15;;;7.70;99.90;;;7.84;74.95;101784.13;5075391;28;20060;-62
2022/02/25 08:20:18;;;;;;;26.80;7.60;;;7.70;99.90;;;7.63;74.52;101758.19;5093441;28;20048;-62
2022/02/25 08:22:46;;;;;;;27.35;7.47;;;7.70;99.90;;;7.93;74.74;101795.75;5093225;28;20043;-65
2022/02/25 08:25:15;;;;;;;24.20;6.65;;;7.80;99.90;;;7.98;74.81;101804.63;5093441;28;20061;-62
2022/02/25 08:27:45;;;;;;;34.55;7.45;;;7.90;99.90;;;7.94;74.56;101807.13;5093061;28;20047;-62
2022/02/25 08:30:16;;;;;;;34.35;7.97;;;7.80;99.90;;;7.87;74.79;101810.50;5092893;28;20089;-62
2022/02/25 08:32:47;;;;;;;30.75;7.57;;;7.80;99.90;;;7.89;74.81;101817.59;5093295;28;20095;-62
2022/02/25 08:35:17;;;;;;;23.88;8.20;;;7.70;99.90;;;7.78;75.33;101800.66;5093082;28;20428;-62
2022/02/25 08:37:48;;;;;;;21.88;7.00;;;7.80;99.90;;;7.93;75.23;101858.97;5093107;28;20091;-62
2022/02/25 08:40:17;;;;;;;;;;;7.80;99.90;;;7.92;75.73;101837.81;5093258;28;20494;-62
2022/02/25 08:42:47;;;;;;;30.38;7.30;;;7.80;99.90;;;6.94;75.75;101693.47;5093563;28;20019;-63
2022/02/25 08:45:16;;;;;;;20.17;7.40;;;7.70;99.90;;;7.85;75.51;101830.66;5097227;28;20519;-62
2022/02/25 08:47:46;;;;;;;30.37;7.90;;;7.70;99.90;;;7.79;75.71;101834.06;5097211;28;20413;-61
2022/02/25 08:50:17;;;;;;;20.48;7.38;;;7.70;99.90;;;7.86;75.08;101846.50;5097367;28;20493;-62
2022/02/25 08:52:50;;;;;;;33.85;8.25;;;7.70;99.90;;;7.81;75.13;101834.06;5097181;28;20089;-62
2022/02/25 08:55:21;;;;;;;24.98;7.25;;;7.70;99.90;;;7.72;75.77;101844.41;5096726;28;20061;-63
2022/02/25 08:57:51;;;;;;;35.72;8.15;;;7.60;99.90;;;7.82;75.92;101863.06;5097261;28;20075;-63
2022/02/25 09:00:22;;;;;;;32.58;7.65;;;7.70;99.90;;;7.83;76.04;101851.69;5097234;28;20086;-62
2022/02/25 09:02:52;;;;;;;38.67;9.05;;;7.70;99.90;;;7.77;76.96;101870.00;5097195;28;20079;-63
2022/02/25 09:05:22;;;;;;;33.70;8.13;;;7.70;99.90;;;7.64;76.61;101844.25;5097113;28;20048;-63
2022/02/25 09:07:52;;;;;;;31.65;8.27;;;7.70;99.90;;;7.93;76.68;101876.50;5096822;28;20044;-62
2022/02/25 09:10:21;;;;;;;31.40;7.03;;;7.80;99.90;;;7.78;76.02;101868.25;5096675;28;20109;-62
2022/02/25 09:12:52;;;;;;;22.75;7.30;;;7.70;99.90;;;7.75;76.48;101876.06;5096626;28;20079;-62
2022/02/25 09:15:22;;;;;;;;;;;7.70;99.90;;;7.81;76.52;101899.91;5097151;28;20508;-65
2022/02/25 09:17:52;;;;;;;27.50;7.28;;;7.70;99.90;;;7.73;76.35;101861.97;5096923;28;20312;-65
2022/02/25 09:20:22;;;;;;;30.85;8.15;;;7.70;99.90;;;7.96;76.42;101901.16;5096442;28;20048;-64
2022/02/25 09:22:51;;;;;;;30.92;7.22;;;7.70;99.90;;;7.91;76.36;101902.81;5096406;28;20112;-63
2022/02/25 09:25:25;;;;;;;21.17;6.85;;;7.80;99.90;;;7.98;76.25;101886.28;5096585;28;20048;-61
2022/02/25 09:27:56;;;;;;;26.02;7.63;;;7.90;99.90;;;8.12;76.09;101908.56;5096368;28;20063;-63
2022/02/25 09:30:25;;;;;;;30.25;7.28;;;7.90;99.90;;;8.00;75.45;101897.75;5096357;28;20063;-62
2022/02/25 09:32:55;;;;;;;29.00;7.38;;;7.90;99.90;;;7.76;75.74;101904.19;5096245;28;20048;-62
2022/02/25 09:35:23;;;;;;;35.65;7.68;;;7.70;99.90;;;7.83;76.42;101882.41;5096263;28;20043;-63
2022/02/25 09:37:53;;;;;;;32.28;7.78;;;7.70;99.90;;;7.95;76.17;101902.03;5096421;28;20090;-65
2022/02/25 09:40:24;;;;;;;28.27;7.47;;;7.80;99.90;;;8.05;76.42;101921.56;5096096;28;20234;-62
2022/02/25 09:42:54;;;;;;;30.98;7.72;;;7.90;99.90;;;8.10;76.40;101912.00;5096261;28;20097;-64
2022/02/25 09:45:23;;;;;;;33.10;8.30;;;8.00;99.90;;;8.00;76.09;101934.63;5096112;28;20036;-62
2022/02/25 09:47:53;;;;;;;39.28;8.73;;;7.90;99.90;;;8.06;77.00;101929.50;5096378;28;20050;-63
2022/02/25 09:50:24;;;;;;;30.38;8.63;;;7.90;99.90;;;7.78;76.97;101890.19;5077797;28;20570;-69
2022/02/25 09:52:55;;;;;;;33.20;8.48;;;7.80;99.90;;;8.00;77.07;101949.53;5095736;28;20546;-62
2022/02/25 09:55:26;;;;;;;28.20;7.80;;;7.90;99.90;;;8.19;76.46;101955.25;5095211;28;20040;-63
2022/02/25 09:58:00;;;;;;;32.13;6.80;;;8.00;99.90;;;8.16;76.52;101930.59;5095917;28;20046;-63
2022/02/25 10:00:30;;;;;;;34.50;8.43;;;8.10;99.90;;;8.21;75.85;101960.56;5095745;28;20066;-62
2022/02/25 10:03:01;;;;;;;21.58;6.93;;;8.00;99.90;;;8.06;76.13;101949.69;5095964;28;20138;-63
2022/02/25 10:05:33;;;;;;;28.75;7.70;;;8.00;99.90;;;8.39;75.16;101970.66;5096021;28;20064;-63
2022/02/25 10:08:11;;;;;;;27.52;8.25;;;8.20;99.90;;;8.52;75.05;101973.59;5095652;28;20056;-62
2022/02/25 10:10:49;;;;;;;37.50;8.70;;;8.30;99.90;;;8.71;74.71;101981.03;5077684;28;20048;-62
2022/02/25 10:13:22;;;;;;;28.08;7.28;;;8.50;99.90;;;8.69;74.84;101971.34;5095863;28;20048;-63
2022/02/25 10:15:58;;;;;;;31.77;7.40;;;8.60;99.90;;;8.60;74.74;101973.75;5095878;28;20052;-62
2022/02/25 10:18:29;;;;;;;28.98;7.75;;;8.50;99.90;;;8.60;74.91;101989.59;5095529;28;20420;-64
2022/02/25 10:21:07;;;;;;;28.00;7.25;;;8.50;99.90;;;8.35;74.55;101982.00;5095371;28;20127;-64
2022/02/25 10:23:39;;;;;;;36.55;7.80;;;8.30;99.90;;;8.34;75.79;101999.56;5095656;28;20052;-64
2022/02/25 10:26:17;;;;;;;29.77;7.75;;;8.20;99.90;;;8.33;75.77;102008.31;5095316;28;20032;-67
2022/02/25 10:28:49;;;;;;;29.75;7.35;;;8.20;99.90;;;8.29;76.65;102010.84;5095304;28;20508;-62
2022/02/25 10:31:25;;;;;;;32.33;8.27;;;8.10;99.90;;;8.21;76.40;101987.81;5095439;28;20044;-62
2022/02/25 10:34:09;;;;;;;31.85;8.00;;;8.20;99.90;;;8.43;75.44;102022.59;5095215;28;20449;-64
2022/02/25 10:36:47;;;;;;;27.80;7.75;;;8.30;99.90;;;8.50;75.47;101982.31;5077294;28;20055;-63
2022/02/25 10:39:19;;;;;;;34.05;8.68;;;8.50;99.90;;;8.95;74.32;102030.78;5095228;28;20450;-62